Time;durP1;ratioP1;P1;durP2;ratioP2;P2;SDS_P1;SDS_P2;PMS_P1;PMS_P2;Temp;Humidity;BMP_temperature;BMP_pressure;BME280_temperature;BME280_humidity;BME280_pressure;Samples;Min_cycle;Max_cycle;Signal;HPM_P1;HPM_P2
2022/03/02 00:01:58;;;;;;;27.35;15.48;;;;;;;;;;5055357;28;20028;-70
2022/03/02 00:04:24;;;;;;;23.95;14.23;;;;;;;;;;5073269;28;20079;-66
2022/03/02 00:06:50;;;;;;;26.75;13.95;;;;;;;;;;5055158;28;20032;-70
2022/03/02 00:09:16;;;;;;;28.20;14.02;;;;;;;;;;5073297;28;20040;-69
2022/03/02 00:11:42;;;;;;;29.33;15.02;;;;;;;;;;5073041;28;20151;-69
2022/03/02 00:14:08;;;;;;;31.90;15.88;;;;;;;;;;5072864;28;20078;-70
2022/03/02 00:16:35;;;;;;;33.13;16.35;;;;;;;;;;5073465;28;20028;-70
2022/03/02 00:19:01;;;;;;;32.58;16.42;;;;;;;;;;5073002;28;20508;-69
2022/03/02 00:21:27;;;;;;;30.13;16.25;;;;;;;;;;5073085;28;20397;-69
2022/03/02 00:23:53;;;;;;;27.83;16.00;;;;;;;;;;5072632;28;20024;-69
2022/03/02 00:26:19;;;;;;;32.92;16.05;;;;;;;;;;5072823;28;20039;-69
2022/03/02 00:28:45;;;;;;;30.15;16.73;;;;;;;;;;5072820;28;20390;-69
2022/03/02 00:31:11;;;;;;;29.20;15.57;;;;;;;;;;5072529;28;20051;-69
2022/03/02 00:33:37;;;;;;;28.92;14.75;;;;;;;;;;5072306;28;20466;-69
2022/03/02 00:36:04;;;;;;;23.27;14.77;;;;;;;;;;5072616;28;20021;-70
2022/03/02 00:38:30;;;;;;;27.67;15.38;;;;;;;;;;5072623;28;20028;-69
2022/03/02 00:40:56;;;;;;;29.33;17.60;;;;;;;;;;5054542;28;20386;-70
2022/03/02 00:43:22;;;;;;;29.05;15.52;;;;;;;;;;5072021;28;20127;-69
2022/03/02 00:45:48;;;;;;;34.15;16.00;;;;;;;;;;5072236;28;20098;-69
2022/03/02 00:48:14;;;;;;;30.02;16.25;;;;;;;;;;5072642;28;20051;-69
2022/03/02 00:50:40;;;;;;;32.97;17.83;;;;;;;;;;5072196;28;20025;-67
2022/03/02 00:53:07;;;;;;;30.42;16.65;;;;;;;;;;5071124;28;20024;-69
2022/03/02 00:55:33;;;;;;;33.70;16.33;;;;;;;;;;5072087;28;20025;-69
2022/03/02 00:58:00;;;;;;;28.42;15.05;;;;;;;;;;5071848;28;20029;-69
2022/03/02 01:00:26;;;;;;;28.23;15.43;;;;;;;;;;5072443;28;20094;-69
2022/03/02 01:02:52;;;;;;;23.40;12.50;;;;;;;;;;5072121;28;20040;-71
2022/03/02 01:05:18;;;;;;;29.63;14.35;;;;;;;;;;5072362;28;20024;-70
2022/03/02 01:07:44;;;;;;;24.20;14.00;;;;;;;;;;5072605;28;20082;-68
2022/03/02 01:10:10;;;;;;;26.35;14.82;;;;;;;;;;5072236;28;20040;-72
2022/03/02 01:12:36;;;;;;;27.80;15.23;;;;;;;;;;5072058;28;20432;-69
2022/03/02 01:15:04;;;;;;;23.35;13.50;;;;;;;;;;5071841;28;20029;-70
2022/03/02 01:17:30;;;;;;;25.67;13.02;;;;;;;;;;5072281;28;20016;-71
2022/03/02 01:19:56;;;;;;;26.38;14.18;;;;;;;;;;5072019;28;20033;-71
2022/03/02 01:22:22;;;;;;;26.77;13.68;;;;;;;;;;5071953;28;20141;-71
2022/03/02 01:24:48;;;;;;;28.15;14.05;;;;;;;;;;5071720;28;20107;-69
2022/03/02 01:27:14;;;;;;;27.38;14.13;;;;;;;;;;5071941;28;20020;-69
2022/03/02 01:29:41;;;;;;;28.52;14.63;;;;;;;;;;5072304;28;20039;-69
2022/03/02 01:32:08;;;;;;;24.88;14.27;;;;;;;;;;5072165;28;20028;-69
2022/03/02 01:34:35;;;;;;;27.38;14.95;;;;;;;;;;5071789;28;20056;-69
2022/03/02 01:37:01;;;;;;;27.23;13.57;;;;;;;;;;5053826;28;20033;-68
2022/03/02 01:39:27;;;;;;;28.10;13.70;;;;;;;;;;5071842;28;20060;-69
2022/03/02 01:41:53;;;;;;;27.88;14.50;;;;;;;;;;5071795;28;20439;-69
2022/03/02 01:44:19;;;;;;;24.52;14.23;;;;;;;;;;5071428;28;20044;-70
2022/03/02 01:46:45;;;;;;;24.70;13.48;;;;;;;;;;5071901;28;20081;-69
2022/03/02 01:49:11;;;;;;;27.80;14.93;;;;;;;;;;5071704;28;20513;-69
2022/03/02 01:51:38;;;;;;;28.15;14.35;;;;;;;;;;5071579;28;20029;-70
2022/03/02 01:54:04;;;;;;;37.67;17.60;;;;;;;;;;5071273;28;20021;-70
2022/03/02 01:56:30;;;;;;;29.15;16.15;;;;;;;;;;5071547;28;20411;-69
2022/03/02 01:58:56;;;;;;;28.63;14.07;;;;;;;;;;5071766;28;20051;-69
2022/03/02 02:01:22;;;;;;;30.73;15.55;;;;;;;;;;5071774;28;20107;-70
2022/03/02 02:03:48;;;;;;;32.17;14.60;;;;;;;;;;5053359;28;20083;-69
2022/03/02 02:06:14;;;;;;;27.10;15.05;;;;;;;;;;5074795;28;20025;-70
2022/03/02 02:08:41;;;;;;;29.35;16.88;;;;;;;;;;5075448;28;20054;-70
2022/03/02 02:11:09;;;;;;;25.42;13.93;;;;;;;;;;5075700;28;20066;-69
2022/03/02 02:13:35;;;;;;;27.70;15.05;;;;;;;;;;5075190;28;20498;-70
2022/03/02 02:16:02;;;;;;;27.25;13.75;;;;;;;;;;5075496;28;20032;-69
2022/03/02 02:18:28;;;;;;;28.67;14.88;;;;;;;;;;5075663;28;20363;-70
2022/03/02 02:20:54;;;;;;;27.75;15.10;;;;;;;;;;5075314;28;20040;-70
2022/03/02 02:23:20;;;;;;;30.15;15.65;;;;;;;;;;5074766;28;20028;-69
2022/03/02 02:25:45;;;;;;;28.15;14.07;;;;;;;;;;5075164;28;20475;-69
2022/03/02 02:28:12;;;;;;;23.45;13.60;;;;;;;;;;5075111;28;20028;-70
2022/03/02 02:30:39;;;;;;;30.15;15.07;;;;;;;;;;5075241;28;20107;-71
2022/03/02 02:33:06;;;;;;;30.77;14.98;;;;;;;;;;5074801;28;20020;-70
2022/03/02 02:35:33;;;;;;;25.27;14.75;;;;;;;;;;5074876;28;20546;-70
2022/03/02 02:37:59;;;;;;;31.45;15.57;;;;;;;;;;5074792;28;20025;-71
2022/03/02 02:40:27;;;;;;;27.65;14.48;;;;;;;;;;5074799;28;20086;-70
2022/03/02 02:42:53;;;;;;;28.17;14.38;;;;;;;;;;5074643;28;20021;-70
2022/03/02 02:45:20;;;;;;;30.08;15.18;;;;;;;;;;5075034;28;20451;-70
2022/03/02 02:47:56;;;;;;;31.52;15.10;;;;;;;;;;5074817;28;20120;-70
2022/03/02 02:50:23;;;;;;;22.58;13.05;;;;;;;;;;5056798;28;20028;-70
2022/03/02 02:52:49;;;;;;;25.65;14.57;;;;;;;;;;5074764;28;20395;-69
2022/03/02 02:55:16;;;;;;;29.45;14.23;;;;;;;;;;5074636;28;20012;-69
2022/03/02 02:57:42;;;;;;;28.05;14.57;;;;;;;;;;5075052;28;20024;-70
2022/03/02 03:00:10;;;;;;;24.10;13.75;;;;;;;;;;5074963;28;20025;-69
2022/03/02 03:02:37;;;;;;;30.05;15.88;;;;;;;;;;5074602;28;20490;-69
2022/03/02 03:05:03;;;;;;;37.00;15.73;;;;;;;;;;5074082;28;20059;-69
2022/03/02 03:07:29;;;;;;;32.67;14.85;;;;;;;;;;5074734;28;20060;-69
2022/03/02 03:09:55;;;;;;;27.65;14.73;;;;;;;;;;5074412;28;20048;-69
2022/03/02 03:12:21;;;;;;;28.08;14.48;;;;;;;;;;5056202;28;20037;-70
2022/03/02 03:14:47;;;;;;;27.95;14.45;;;;;;;;;;5073942;28;20028;-69
2022/03/02 03:17:13;;;;;;;26.00;14.02;;;;;;;;;;5072688;28;20032;-70
2022/03/02 03:19:39;;;;;;;27.48;14.77;;;;;;;;;;5073846;28;20055;-69
2022/03/02 03:22:06;;;;;;;24.92;13.80;;;;;;;;;;5074057;28;20500;-69
2022/03/02 03:24:33;;;;;;;29.77;15.35;;;;;;;;;;5073827;28;20032;-67
2022/03/02 03:26:59;;;;;;;27.98;14.65;;;;;;;;;;5074212;28;20461;-68
2022/03/02 03:29:25;;;;;;;30.83;16.13;;;;;;;;;;5055905;28;20060;-69
2022/03/02 03:31:51;;;;;;;29.42;14.35;;;;;;;;;;5073939;28;20031;-69
2022/03/02 03:34:17;;;;;;;29.58;15.27;;;;;;;;;;5073479;28;20497;-68
2022/03/02 03:36:43;;;;;;;27.15;15.50;;;;;;;;;;5073825;28;20497;-69
2022/03/02 03:39:09;;;;;;;27.23;14.40;;;;;;;;;;5073785;28;20028;-69
2022/03/02 03:41:35;;;;;;;25.98;14.95;;;;;;;;;;5055804;28;20383;-69
2022/03/02 03:44:01;;;;;;;29.50;15.35;;;;;;;;;;5095355;22;20055;-70
2022/03/02 03:46:28;;;;;;;24.85;14.80;;;;;;;;;;5073966;28;20044;-71
2022/03/02 03:48:53;;;;;;;27.20;15.38;;;;;;;;;;5055615;28;20390;-71
2022/03/02 03:51:20;;;;;;;26.33;13.73;;;;;;;;;;5073791;28;20115;-71
2022/03/02 03:53:46;;;;;;;27.15;13.90;;;;;;;;;;5073544;28;20471;-70
2022/03/02 03:56:12;;;;;;;28.92;15.10;;;;;;;;;;5073854;28;20078;-70
2022/03/02 03:58:38;;;;;;;28.05;14.20;;;;;;;;;;5074936;28;20585;-70
2022/03/02 04:01:04;;;;;;;29.13;13.85;;;;;;;;;;5058804;28;20036;-71
2022/03/02 04:03:30;;;;;;;26.05;13.75;;;;;;;;;;5076077;28;20025;-70
2022/03/02 04:05:56;;;;;;;27.45;14.95;;;;;;;;;;5074556;28;20043;-71
2022/03/02 04:08:22;;;;;;;25.40;13.95;;;;;;;;;;5073276;28;20028;-70
2022/03/02 04:10:49;;;;;;;30.90;15.30;;;;;;;;;;5073346;28;20020;-70
2022/03/02 04:13:15;;;;;;;29.63;15.27;;;;;;;;;;5054994;28;20028;-71
2022/03/02 04:15:41;;;;;;;28.23;15.23;;;;;;;;;;5073118;28;20107;-71
2022/03/02 04:18:07;;;;;;;30.20;15.30;;;;;;;;;;5073279;28;20059;-70
2022/03/02 04:20:34;;;;;;;29.27;15.18;;;;;;;;;;5073069;28;20427;-70
2022/03/02 04:23:00;;;;;;;26.90;14.35;;;;;;;;;;5073110;28;20359;-71
2022/03/02 04:25:26;;;;;;;23.85;13.15;;;;;;;;;;5073054;28;20100;-71
2022/03/02 04:27:52;;;;;;;25.92;13.98;;;;;;;;;;5073139;28;20028;-70
2022/03/02 04:30:18;;;;;;;25.05;14.02;;;;;;;;;;5072849;28;20348;-71
2022/03/02 04:32:44;;;;;;;27.52;13.95;;;;;;;;;;5073012;28;20024;-69
2022/03/02 04:35:12;;;;;;;22.42;13.27;;;;;;;;;;5072782;28;20053;-71
2022/03/02 04:37:42;;;;;;;31.60;15.23;;;;;;;;;;5072851;28;20035;-71
2022/03/02 04:40:10;;;;;;;23.73;13.40;;;;;;;;;;5073185;28;20029;-72
2022/03/02 04:42:36;;;;;;;27.25;15.52;;;;;;;;;;5072999;28;20056;-71
2022/03/02 04:45:03;;;;;;;26.23;14.75;;;;;;;;;;5072171;28;20478;-71
2022/03/02 04:47:29;;;;;;;30.58;13.32;;;;;;;;;;5072682;28;20048;-71
2022/03/02 04:49:55;;;;;;;27.60;14.65;;;;;;;;;;5073268;28;20447;-71
2022/03/02 04:52:21;;;;;;;30.13;15.10;;;;;;;;;;5072319;28;20029;-70
2022/03/02 04:55:05;;;;;;;27.42;13.57;;;;;;;;;;5072471;28;20021;-71
2022/03/02 04:57:32;;;;;;;23.38;13.10;;;;;;;;;;5072723;28;20409;-71
2022/03/02 04:59:58;;;;;;;30.02;15.40;;;;;;;;;;5072393;28;20028;-71
2022/03/02 05:02:24;;;;;;;24.55;13.73;;;;;;;;;;5072192;28;20074;-71
2022/03/02 05:04:50;;;;;;;27.52;13.55;;;;;;;;;;5071973;28;20113;-70
2022/03/02 05:07:16;;;;;;;27.30;14.50;;;;;;;;;;5072540;28;20056;-71
2022/03/02 05:09:43;;;;;;;24.88;13.45;;;;;;;;;;5072325;28;20033;-71
2022/03/02 05:12:09;;;;;;;35.72;13.40;;;;;;;;;;5072292;28;20107;-71
2022/03/02 05:14:36;;;;;;;22.88;12.88;;;;;;;;;;5071984;28;20028;-73
2022/03/02 05:17:02;;;;;;;23.95;13.68;;;;;;;;;;5072011;28;20070;-71
2022/03/02 05:19:28;;;;;;;25.02;13.32;;;;;;;;;;5072169;28;20104;-71
2022/03/02 05:21:54;;;;;;;25.73;12.82;;;;;;;;;;5072346;28;20474;-71
2022/03/02 05:24:20;;;;;;;29.90;13.27;;;;;;;;;;5072326;28;20033;-71
2022/03/02 05:26:46;;;;;;;25.23;11.85;;;;;;;;;;5072401;28;20489;-71
2022/03/02 05:29:12;;;;;;;32.35;13.32;;;;;;;;;;5072853;28;20028;-71
2022/03/02 05:31:38;;;;;;;24.45;12.98;;;;;;;;;;5072132;28;20125;-71
2022/03/02 05:34:04;;;;;;;25.80;13.50;;;;;;;;;;5071738;28;20020;-71
2022/03/02 05:36:30;;;;;;;22.98;12.23;;;;;;;;;;5071127;28;20551;-73
2022/03/02 05:38:56;;;;;;;26.50;14.55;;;;;;;;;;5070527;28;20025;-72
2022/03/02 05:41:22;;;;;;;25.20;13.77;;;;;;;;;;5069487;28;20037;-73
2022/03/02 05:43:49;;;;;;;27.17;14.32;;;;;;;;;;5071086;28;20067;-72
2022/03/02 05:46:15;;;;;;;27.42;13.40;;;;;;;;;;5053672;28;20028;-71
2022/03/02 05:48:41;;;;;;;26.20;13.55;;;;;;;;;;5075988;28;20510;-71
2022/03/02 05:51:07;;;;;;;24.17;13.63;;;;;;;;;;5071834;28;20479;-71
2022/03/02 05:53:34;;;;;;;25.75;13.30;;;;;;;;;;5051909;28;20026;-71
2022/03/02 05:55:59;;;;;;;24.63;12.45;;;;;;;;;;5054334;28;20096;-71
2022/03/02 05:58:25;;;;;;;23.92;12.77;;;;;;;;;;5073121;28;20080;-71
2022/03/02 06:00:52;;;;;;;24.35;12.82;;;;;;;;;;5072068;28;20036;-69
2022/03/02 06:03:19;;;;;;;20.25;11.68;;;;;;;;;;5072129;28;20033;-69
2022/03/02 06:05:45;;;;;;;26.38;12.63;;;;;;;;;;5054607;28;20398;-72
2022/03/02 06:08:11;;;;;;;23.60;13.25;;;;;;;;;;5072533;28;20132;-71
2022/03/02 06:10:37;;;;;;;21.65;11.60;;;;;;;;;;5071561;28;20092;-71
2022/03/02 06:13:03;;;;;;;22.73;10.88;;;;;;;;;;5070064;28;20063;-71
2022/03/02 06:15:30;;;;;;;19.63;9.68;;;;;;;;;;5069826;28;20031;-71
2022/03/02 06:18:00;;;;;;;17.42;10.63;;;;;;;;;;5070249;28;20139;-71
2022/03/02 06:20:27;;;;;;;15.23;8.85;;;;;;;;;;5070355;28;20063;-70
2022/03/02 06:22:53;;;;;;;22.55;10.45;;;;;;;;;;5070698;28;20085;-72
2022/03/02 06:25:19;;;;;;;21.58;11.10;;;;;;;;;;5075842;28;20031;-70
2022/03/02 06:27:45;;;;;;;17.48;10.40;;;;;;;;;;5078236;28;20025;-72
2022/03/02 06:30:12;;;;;;;22.88;11.48;;;;;;;;;;5074116;28;20038;-70
2022/03/02 06:32:38;;;;;;;22.85;11.18;;;;;;;;;;5071730;28;20040;-72
2022/03/02 06:35:04;;;;;;;24.33;11.02;;;;;;;;;;5052784;28;20059;-70
2022/03/02 06:37:33;;;;;;;20.25;11.30;;;;;;;;;;5072000;28;20028;-71
2022/03/02 06:39:59;;;;;;;19.02;10.80;;;;;;;;;;5071069;28;20059;-71
2022/03/02 06:42:33;;;;;;;20.08;10.98;;;;;;;;;;5071005;28;20082;-71
2022/03/02 06:45:09;;;;;;;20.38;11.02;;;;;;;;;;5070819;28;20465;-71
2022/03/02 06:47:41;;;;;;;21.90;11.20;;;;;;;;;;5053452;28;20035;-71
2022/03/02 06:50:09;;;;;;;19.42;11.35;;;;;;;;;;5071371;28;20117;-71
2022/03/02 06:52:36;;;;;;;18.88;10.68;;;;;;;;;;5057287;28;20024;-70
2022/03/02 06:55:07;;;;;;;23.55;12.63;;;;;;;;;;5074671;28;20055;-70
2022/03/02 06:57:34;;;;;;;21.73;9.93;;;;;;;;;;5074796;28;20024;-71
2022/03/02 07:00:18;;;;;;;19.48;10.38;;;;;;;;;;5074735;28;20028;-71
2022/03/02 07:03:02;;;;;;;20.00;11.15;;;;;;;;;;5075245;28;20044;-74
2022/03/02 07:05:29;;;;;;;18.27;11.02;;;;;;;;;;5074970;28;20088;-71
2022/03/02 07:07:55;;;;;;;22.08;10.90;;;;;;;;;;5075317;28;20028;-72
2022/03/02 07:10:21;;;;;;;22.10;11.23;;;;;;;;;;5074999;28;20052;-72
2022/03/02 07:12:47;;;;;;;18.20;11.75;;;;;;;;;;5075129;28;20072;-72
2022/03/02 07:15:13;;;;;;;20.42;10.98;;;;;;;;;;5074842;28;20032;-71
2022/03/02 07:17:40;;;;;;;23.20;12.50;;;;;;;;;;5075163;28;20025;-71
2022/03/02 07:20:10;;;;;;;22.80;12.50;;;;;;;;;;5074785;28;20028;-72
2022/03/02 07:22:38;;;;;;;19.48;11.38;;;;;;;;;;5074445;28;20021;-72
2022/03/02 07:25:24;;;;;;;20.70;11.00;;;;;;;;;;5074052;28;20086;-74
2022/03/02 07:27:50;;;;;;;20.55;11.95;;;;;;;;;;5056194;28;20016;-74
2022/03/02 07:30:17;;;;;;;18.20;10.80;;;;;;;;;;5073859;28;20020;-73
2022/03/02 07:32:47;;;;;;;21.63;11.27;;;;;;;;;;5074076;28;20021;-72
2022/03/02 07:35:15;;;;;;;25.90;12.17;;;;;;;;;;5073878;28;20170;-74
2022/03/02 07:37:41;;;;;;;19.00;11.35;;;;;;;;;;5073865;28;20437;-73
2022/03/02 07:40:07;;;;;;;20.88;11.60;;;;;;;;;;5074091;28;20441;-73
2022/03/02 07:42:34;;;;;;;23.50;11.88;;;;;;;;;;5074081;28;20039;-74
2022/03/02 07:45:00;;;;;;;19.63;10.90;;;;;;;;;;5073556;28;20467;-74
2022/03/02 07:47:26;;;;;;;26.65;12.75;;;;;;;;;;5073369;28;20525;-73
2022/03/02 07:49:52;;;;;;;18.90;11.68;;;;;;;;;;5055929;28;20056;-72
2022/03/02 07:52:18;;;;;;;19.23;11.43;;;;;;;;;;5073545;28;20021;-75
2022/03/02 07:54:47;;;;;;;22.00;12.57;;;;;;;;;;5055939;28;20405;-75
2022/03/02 07:57:14;;;;;;;27.02;12.15;;;;;;;;;;5074319;28;20017;-74
2022/03/02 07:59:41;;;;;;;24.98;12.15;;;;;;;;;;5073954;28;20185;-75
2022/03/02 08:02:09;;;;;;;24.27;12.20;;;;;;;;;;5073704;28;20070;-75
2022/03/02 08:04:44;;;;;;;24.65;12.30;;;;;;;;;;5073496;28;20025;-76
2022/03/02 08:07:14;;;;;;;24.58;12.52;;;;;;;;;;5074101;28;20118;-73
2022/03/02 08:09:40;;;;;;;26.95;11.82;;;;;;;;;;5056207;28;20398;-74
2022/03/02 08:12:07;;;;;;;19.35;10.45;;;;;;;;;;5073368;28;20052;-77
2022/03/02 08:14:33;;;;;;;21.38;11.77;;;;;;;;;;5073139;28;20017;-75
2022/03/02 08:16:59;;;;;;;25.80;12.00;;;;;;;;;;5073800;28;20032;-75
2022/03/02 08:19:25;;;;;;;22.02;12.07;;;;;;;;;;5073574;28;20116;-73
2022/03/02 08:22:18;;;;;;;21.27;12.95;;;;;;;;;;5073713;28;20028;-75
2022/03/02 08:24:52;;;;;;;21.63;11.93;;;;;;;;;;5070574;28;20656;-75
2022/03/02 08:27:19;;;;;;;26.30;12.27;;;;;;;;;;5055407;28;20398;-77
2022/03/02 08:29:52;;;;;;;25.42;13.68;;;;;;;;;;5073207;28;20036;-77
2022/03/02 08:32:19;;;;;;;23.05;12.18;;;;;;;;;;5073283;28;20082;-75
2022/03/02 08:34:45;;;;;;;26.92;12.15;;;;;;;;;;5072950;28;20028;-76
2022/03/02 08:37:11;;;;;;;24.77;11.65;;;;;;;;;;5073298;28;20016;-77
2022/03/02 08:39:37;;;;;;;24.63;11.60;;;;;;;;;;5073557;28;20024;-74
2022/03/02 08:42:04;;;;;;;21.33;10.35;;;;;;;;;;5073468;28;20104;-76
2022/03/02 08:44:29;;;;;;;26.70;11.23;;;;;;;;;;5073019;28;20094;-73
2022/03/02 08:46:56;;;;;;;20.63;10.30;;;;;;;;;;5072527;28;20024;-74
2022/03/02 08:49:22;;;;;;;21.65;11.68;;;;;;;;;;5073298;28;20050;-76
2022/03/02 08:51:51;;;;;;;18.98;11.25;;;;;;;;;;5073794;28;20028;-73
2022/03/02 08:54:18;;;;;;;22.55;11.32;;;;;;;;;;5072842;28;20024;-75
2022/03/02 08:56:46;;;;;;;23.67;11.15;;;;;;;;;;5074083;28;20035;-75
2022/03/02 08:59:13;;;;;;;21.23;11.57;;;;;;;;;;5074144;28;20105;-73
2022/03/02 09:01:43;;;;;;;22.73;11.40;;;;;;;;;;5073532;28;20035;-75
2022/03/02 09:04:13;;;;;;;20.88;10.85;;;;;;;;;;5072799;28;20032;-75
2022/03/02 09:06:39;;;;;;;22.50;11.07;;;;;;;;;;5073299;28;20025;-75
2022/03/02 09:09:06;;;;;;;20.30;11.38;;;;;;;;;;5055405;28;20025;-73
2022/03/02 09:11:32;;;;;;;24.75;12.90;;;;;;;;;;5054730;28;20028;-73
2022/03/02 09:13:59;;;;;;;22.75;11.05;;;;;;;;;;5072060;28;20039;-74
2022/03/02 09:16:25;;;;;;;20.65;11.10;;;;;;;;;;5054926;28;20056;-74
2022/03/02 09:18:51;;;;;;;32.15;12.55;;;;;;;;;;5073138;28;20505;-74
2022/03/02 09:21:19;;;;;;;25.23;12.25;;;;;;;;;;5072527;28;20029;-71
2022/03/02 09:23:46;;;;;;;24.00;12.13;;;;;;;;;;5072100;28;20029;-73
2022/03/02 09:26:13;;;;;;;19.85;12.63;;;;;;;;;;5072149;28;20063;-72
2022/03/02 09:28:40;;;;;;;23.27;12.80;;;;;;;;;;5072562;28;20509;-73
2022/03/02 09:31:08;;;;;;;22.77;11.25;;;;;;;;;;5072550;28;20474;-72
2022/03/02 09:33:34;;;;;;;19.60;11.23;;;;;;;;;;5071866;28;20025;-71
2022/03/02 09:36:02;;;;;;;24.30;11.52;;;;;;;;;;5072464;28;20485;-73
2022/03/02 09:38:30;;;;;;;23.38;11.60;;;;;;;;;;5071678;28;20021;-73
2022/03/02 09:40:58;;;;;;;28.80;13.07;;;;;;;;;;5072270;28;20020;-75
2022/03/02 09:43:25;;;;;;;19.35;10.15;;;;;;;;;;5071879;28;20020;-76
2022/03/02 09:45:54;;;;;;;20.77;10.25;;;;;;;;;;5070772;22;20521;-72
2022/03/02 09:48:44;;;;;;;21.00;11.43;;;;;;;;;;5050216;28;20398;-71
2022/03/02 09:51:10;;;;;;;22.13;11.75;;;;;;;;;;5041155;28;20105;-69
2022/03/02 09:53:36;;;;;;;17.73;10.57;;;;;;;;;;5051446;28;20100;-74
2022/03/02 09:56:06;;;;;;;17.85;11.13;;;;;;;;;;5051790;28;20031;-74
2022/03/02 09:58:37;;;;;;;20.00;11.10;;;;;;;;;;5033721;28;20026;-74
2022/03/02 10:01:03;;;;;;;21.60;11.35;;;;;;;;;;5051416;28;20509;-74
2022/03/02 10:03:36;;;;;;;20.58;11.30;;;;;;;;;;5051590;28;20041;-73
2022/03/02 10:06:04;;;;;;;20.10;10.50;;;;;;;;;;5051538;28;20043;-73
2022/03/02 10:08:32;;;;;;;19.13;11.65;;;;;;;;;;5051431;28;20530;-74
2022/03/02 10:11:02;;;;;;;18.42;10.95;;;;;;;;;;5051526;28;20068;-70
2022/03/02 10:13:28;;;;;;;20.10;11.25;;;;;;;;;;5050950;28;20112;-73
2022/03/02 10:15:57;;;;;;;18.52;10.48;;;;;;;;;;5051435;28;20515;-74
2022/03/02 10:18:25;;;;;;;20.98;10.93;;;;;;;;;;5051664;28;20100;-74
2022/03/02 10:20:57;;;;;;;18.45;11.25;;;;;;;;;;5051101;28;20056;-72
2022/03/02 10:23:41;;;;;;;25.58;11.95;;;;;;;;;;5051014;28;20024;-71
2022/03/02 10:26:26;;;;;;;20.15;12.32;;;;;;;;;;5034662;28;20051;-72
2022/03/02 10:29:00;;;;;;;21.50;11.20;;;;;;;;;;5054962;28;20032;-71
2022/03/02 10:31:43;;;;;;;21.77;11.07;;;;;;;;;;5037069;28;20070;-72
2022/03/02 10:34:19;;;;;;;23.48;12.25;;;;;;;;;;5054588;28;20051;-71
2022/03/02 10:36:46;;;;;;;19.55;11.80;;;;;;;;;;5055000;28;20040;-71
2022/03/02 10:39:26;;;;;;;19.13;11.00;;;;;;;;;;5054779;28;20017;-71
2022/03/02 10:41:52;;;;;;;22.25;11.35;;;;;;;;;;5054900;28;20082;-72
2022/03/02 10:44:36;;;;;;;21.00;11.55;;;;;;;;;;5054863;28;20033;-72
2022/03/02 10:47:03;;;;;;;18.58;10.45;;;;;;;;;;5054837;28;20086;-72
2022/03/02 10:49:30;;;;;;;15.88;10.05;;;;;;;;;;5055106;28;20095;-71
2022/03/02 10:51:56;;;;;;;21.63;11.73;;;;;;;;;;5055126;28;20029;-72
2022/03/02 10:54:24;;;;;;;19.67;11.60;;;;;;;;;;5054575;28;20029;-72
2022/03/02 10:56:52;;;;;;;20.75;10.00;;;;;;;;;;5054562;28;20040;-71
2022/03/02 10:59:21;;;;;;;18.42;10.32;;;;;;;;;;5054623;28;20021;-69
2022/03/02 11:01:48;;;;;;;22.92;11.82;;;;;;;;;;5054695;28;20119;-68
2022/03/02 11:04:14;;;;;;;17.17;11.00;;;;;;;;;;5054257;28;20048;-69
2022/03/02 11:06:41;;;;;;;18.85;10.63;;;;;;;;;;5054426;28;20086;-68
2022/03/02 11:09:07;;;;;;;16.52;10.38;;;;;;;;;;5054250;28;20036;-69
2022/03/02 11:11:35;;;;;;;19.80;11.18;;;;;;;;;;5054439;28;20391;-69
2022/03/02 11:14:01;;;;;;;22.23;11.85;;;;;;;;;;5054338;28;20025;-69
2022/03/02 11:16:28;;;;;;;19.83;11.35;;;;;;;;;;5054395;28;20116;-70
2022/03/02 11:18:54;;;;;;;20.27;11.35;;;;;;;;;;5036507;28;20415;-69
2022/03/02 11:21:23;;;;;;;20.55;11.13;;;;;;;;;;5054764;28;20031;-70
2022/03/02 11:23:52;;;;;;;22.65;10.32;;;;;;;;;;5053805;28;20029;-69
2022/03/02 11:26:26;;;;;;;24.55;11.40;;;;;;;;;;5054029;28;20025;-70
2022/03/02 11:28:53;;;;;;;18.08;9.60;;;;;;;;;;5054218;28;20028;-70
2022/03/02 11:31:23;;;;;;;20.27;10.95;;;;;;;;;;5053947;28;20100;-69
2022/03/02 11:33:50;;;;;;;19.20;10.88;;;;;;;;;;5053849;28;20443;-69
2022/03/02 11:36:17;;;;;;;17.13;10.45;;;;;;;;;;5036012;28;20029;-72
2022/03/02 11:38:44;;;;;;;17.75;10.25;;;;;;;;;;5052965;28;20029;-71
2022/03/02 11:41:11;;;;;;;18.98;10.85;;;;;;;;;;5054172;28;20029;-72
2022/03/02 11:43:38;;;;;;;24.65;11.35;;;;;;;;;;5053551;28;20028;-68
2022/03/02 11:46:06;;;;;;;18.30;11.48;;;;;;;;;;5053485;28;20487;-68
2022/03/02 11:48:36;;;;;;;20.95;10.95;;;;;;;;;;5053583;28;20036;-71
2022/03/02 11:51:21;;;;;;;21.88;11.45;;;;;;;;;;5053898;28;20082;-71
2022/03/02 11:53:48;;;;;;;22.05;11.63;;;;;;;;;;5035780;28;20071;-70
2022/03/02 11:56:16;;;;;;;20.55;10.70;;;;;;;;;;5053667;28;20407;-73
2022/03/02 11:58:55;;;;;;;25.98;10.13;;;;;;;;;;5053771;28;20092;-71
2022/03/02 12:01:22;;;;;;;15.55;9.20;;;;;;;;;;5053155;28;20036;-73
2022/03/02 12:03:55;;;;;;;20.20;11.20;;;;;;;;;;5053298;28;20053;-71
2022/03/02 12:06:21;;;;;;;17.92;11.40;;;;;;;;;;5053571;28;20025;-74
2022/03/02 12:08:52;;;;;;;18.95;10.73;;;;;;;;;;5053499;28;20089;-70
2022/03/02 12:11:22;;;;;;;16.15;10.60;;;;;;;;;;5035295;28;20402;-69
2022/03/02 12:14:09;;;;;;;14.30;9.55;;;;;;;;;;5052984;28;20025;-66
2022/03/02 12:16:42;;;;;;;16.70;9.50;;;;;;;;;;5053038;28;20021;-67
2022/03/02 12:19:22;;;;;;;15.32;9.75;;;;;;;;;;5052993;28;20120;-68
2022/03/02 12:21:49;;;;;;;18.17;9.10;;;;;;;;;;5053090;28;20078;-68
2022/03/02 12:24:32;;;;;;;14.85;9.70;;;;;;;;;;5052994;28;20024;-67
2022/03/02 12:27:04;;;;;;;13.88;7.97;;;;;;;;;;5053150;28;20442;-67
2022/03/02 12:29:31;;;;;;;18.50;8.90;;;;;;;;;;5052890;28;20103;-67
2022/03/02 12:32:08;;;;;;;15.02;9.20;;;;;;;;;;5052977;28;20455;-67
2022/03/02 12:34:44;;;;;;;15.35;7.78;;;;;;;;;;5052967;28;20013;-70
2022/03/02 12:37:12;;;;;;;20.70;10.90;;;;;;;;;;5053034;28;20021;-72
2022/03/02 12:39:38;;;;;;;13.52;7.47;;;;;;;;;;5052674;28;20028;-69
2022/03/02 12:42:07;;;;;;;11.43;7.07;;;;;;;;;;5052643;28;20403;-69
2022/03/02 12:44:41;;;;;;;12.90;6.70;;;;;;;;;;5052026;28;20067;-68
2022/03/02 12:47:11;;;;;;;9.00;6.00;;;;;;;;;;5051874;28;20487;-69
2022/03/02 12:49:39;;;;;;;7.93;5.35;;;;;;;;;;5052468;28;20120;-69
2022/03/02 12:52:05;;;;;;;12.65;6.95;;;;;;;;;;5052230;28;20032;-69
2022/03/02 12:54:33;;;;;;;16.42;7.20;;;;;;;;;;5034092;28;20112;-69
2022/03/02 12:57:00;;;;;;;10.48;6.65;;;;;;;;;;5052335;28;20028;-69
2022/03/02 12:59:27;;;;;;;12.93;6.55;;;;;;;;;;5052313;28;20147;-70
2022/03/02 13:01:53;;;;;;;12.55;6.88;;;;;;;;;;5052521;28;20053;-71
2022/03/02 13:04:23;;;;;;;9.85;5.78;;;;;;;;;;5051974;28;20040;-68
2022/03/02 13:06:51;;;;;;;11.37;5.57;;;;;;;;;;5052526;28;20025;-70
2022/03/02 13:09:21;;;;;;;11.55;6.93;;;;;;;;;;5052139;28;20487;-71
2022/03/02 13:11:47;;;;;;;10.57;6.00;;;;;;;;;;5052157;28;20017;-68
2022/03/02 13:14:31;;;;;;;8.18;5.47;;;;;;;;;;5051900;28;20086;-69
2022/03/02 13:17:13;;;;;;;10.23;5.90;;;;;;;;;;5052114;28;20495;-67
2022/03/02 13:19:44;;;;;;;9.10;5.72;;;;;;;;;;5051611;28;20053;-67
2022/03/02 13:22:16;;;;;;;10.95;5.63;;;;;;;;;;5052447;28;20052;-68
2022/03/02 13:24:45;;;;;;;10.52;5.68;;;;;;;;;;5051903;28;20025;-69
2022/03/02 13:27:12;;;;;;;11.80;6.03;;;;;;;;;;5052132;28;20071;-69
2022/03/02 13:29:49;;;;;;;8.40;5.18;;;;;;;;;;5052190;28;20447;-69
2022/03/02 13:32:15;;;;;;;10.65;5.60;;;;;;;;;;5033824;28;20075;-67
2022/03/02 13:35:01;;;;;;;10.18;5.60;;;;;;;;;;5052400;28;20029;-68
2022/03/02 13:37:47;;;;;;;9.77;5.40;;;;;;;;;;5052311;28;20046;-68
2022/03/02 13:40:34;;;;;;;7.88;5.13;;;;;;;;;;5051621;28;20025;-68
2022/03/02 13:43:06;;;;;;;10.43;5.65;;;;;;;;;;5051402;28;20028;-67
2022/03/02 13:45:34;;;;;;;14.20;6.45;;;;;;;;;;5051521;28;20514;-68
2022/03/02 13:48:16;;;;;;;9.93;5.55;;;;;;;;;;5051495;28;20601;-67
2022/03/02 13:51:00;;;;;;;10.90;5.97;;;;;;;;;;5051523;28;20033;-69
2022/03/02 13:53:36;;;;;;;12.02;6.75;;;;;;;;;;5051533;28;20021;-68
2022/03/02 13:56:11;;;;;;;13.13;7.07;;;;;;;;;;5051376;28;20025;-68
2022/03/02 13:58:38;;;;;;;9.60;6.20;;;;;;;;;;5051236;28;20028;-68
2022/03/02 14:01:13;;;;;;;12.88;6.93;;;;;;;;;;5052859;28;20103;-67
2022/03/02 14:03:43;;;;;;;15.70;7.68;;;;;;;;;;5054963;28;20433;-69
2022/03/02 14:06:09;;;;;;;16.67;8.48;;;;;;;;;;5055347;28;20502;-68
2022/03/02 14:08:42;;;;;;;13.05;7.82;;;;;;;;;;5055395;28;20032;-68
2022/03/02 14:11:09;;;;;;;14.63;7.88;;;;;;;;;;5055319;28;20603;-68
2022/03/02 14:13:35;;;;;;;15.57;8.40;;;;;;;;;;5055189;28;20017;-68
2022/03/02 14:16:05;;;;;;;15.35;7.65;;;;;;;;;;5037373;28;20049;-68
2022/03/02 14:18:31;;;;;;;14.25;7.43;;;;;;;;;;5055113;28;20033;-68
2022/03/02 14:20:57;;;;;;;13.25;8.43;;;;;;;;;;5055118;28;20456;-70
2022/03/02 14:23:23;;;;;;;13.45;8.55;;;;;;;;;;5055214;28;20112;-68
2022/03/02 14:25:53;;;;;;;14.68;8.57;;;;;;;;;;5055324;28;20021;-69